Time;durP1;ratioP1;P1;durP2;ratioP2;P2;SDS_P1;SDS_P2;PMS_P1;PMS_P2;Temp;Humidity;BMP_temperature;BMP_pressure;BME280_temperature;BME280_humidity;BME280_pressure;Samples;Min_cycle;Max_cycle;Signal;HPM_P1;HPM_P2
2022/04/27 00:02:11;;;;;;;1.50;1.40;;;18.80;63.70;;;;;;5034952;28;20037;-67
2022/04/27 00:04:37;;;;;;;2.97;1.30;;;18.80;63.70;;;;;;5036187;28;20029;-67
2022/04/27 00:07:04;;;;;;;1.50;1.40;;;18.70;63.70;;;;;;5035810;28;20026;-67
2022/04/27 00:09:30;;;;;;;1.77;1.58;;;18.80;63.70;;;;;;5035894;28;20068;-67
2022/04/27 00:12:00;;;;;;;3.20;1.52;;;18.70;63.70;;;;;;5035745;28;20087;-67
2022/04/27 00:14:29;;;;;;;1.77;1.40;;;18.80;63.90;;;;;;5035703;28;20052;-67
2022/04/27 00:16:55;;;;;;;1.70;1.55;;;18.70;63.80;;;;;;5034581;28;20032;-67
2022/04/27 00:19:21;;;;;;;4.93;1.33;;;18.80;63.90;;;;;;5035669;28;20022;-67
2022/04/27 00:21:47;;;;;;;1.73;1.13;;;18.80;63.90;;;;;;5035480;28;20380;-67
2022/04/27 00:24:12;;;;;;;4.72;1.70;;;18.80;63.90;;;;;;5035598;28;20108;-67
2022/04/27 00:26:38;;;;;;;1.67;1.10;;;18.80;64.00;;;;;;5035781;28;20453;-67
2022/04/27 00:29:04;;;;;;;2.35;1.60;;;18.80;64.00;;;;;;5035476;28;20535;-67
2022/04/27 00:31:31;;;;;;;1.40;1.30;;;18.80;64.00;;;;;;5035569;28;20026;-67
2022/04/27 00:33:57;;;;;;;3.08;1.60;;;18.80;64.00;;;;;;5035250;28;20112;-67
2022/04/27 00:36:23;;;;;;;1.88;1.30;;;18.80;64.00;;;;;;5035664;28;20101;-67
2022/04/27 00:38:49;;;;;;;1.73;1.55;;;18.80;64.00;;;;;;5017823;28;20502;-67
2022/04/27 00:41:14;;;;;;;1.58;1.40;;;18.80;64.00;;;;;;5035206;28;20088;-67
2022/04/27 00:43:41;;;;;;;1.52;1.42;;;18.80;64.10;;;;;;5035224;28;20388;-67
2022/04/27 00:46:07;;;;;;;2.25;1.33;;;18.80;64.10;;;;;;5034035;28;20036;-67
2022/04/27 00:48:32;;;;;;;2.25;1.38;;;18.80;64.10;;;;;;5033775;28;20021;-67
2022/04/27 00:51:01;;;;;;;1.30;1.20;;;18.80;64.20;;;;;;5033865;28;20032;-67
2022/04/27 00:53:27;;;;;;;1.67;1.45;;;18.80;64.20;;;;;;5033363;28;20117;-67
2022/04/27 00:55:53;;;;;;;1.58;1.45;;;18.80;64.20;;;;;;5035106;28;20081;-67
2022/04/27 00:58:19;;;;;;;2.90;1.35;;;18.80;64.20;;;;;;5033849;28;20033;-67
2022/04/27 01:00:44;;;;;;;2.00;1.83;;;18.80;64.20;;;;;;5035139;28;20025;-67
2022/04/27 01:03:10;;;;;;;1.50;1.40;;;18.80;64.20;;;;;;5033476;28;20028;-67
2022/04/27 01:05:36;;;;;;;5.07;1.55;;;18.80;64.30;;;;;;5034904;28;20035;-67
2022/04/27 01:08:02;;;;;;;1.63;1.35;;;18.80;64.30;;;;;;5033507;28;20147;-67
2022/04/27 01:10:28;;;;;;;2.20;1.40;;;18.70;64.30;;;;;;5033916;28;20125;-67
2022/04/27 01:12:57;;;;;;;1.92;1.38;;;18.80;64.40;;;;;;5033581;28;20018;-67
2022/04/27 01:15:36;;;;;;;1.52;1.42;;;18.80;64.40;;;;;;5017215;28;20052;-67
2022/04/27 01:18:02;;;;;;;1.77;1.52;;;18.80;64.50;;;;;;5034543;28;20535;-67
2022/04/27 01:20:37;;;;;;;2.38;1.30;;;18.80;64.50;;;;;;5033429;28;20093;-67
2022/04/27 01:23:04;;;;;;;2.20;1.23;;;18.80;64.50;;;;;;5033248;28;20104;-67
2022/04/27 01:25:48;;;;;;;4.68;1.40;;;18.80;64.50;;;;;;5033402;28;20097;-67
2022/04/27 01:28:15;;;;;;;1.42;1.25;;;18.80;64.50;;;;;;5034331;28;20060;-67
2022/04/27 01:30:42;;;;;;;1.40;1.30;;;18.70;64.50;;;;;;5033522;28;20033;-67
2022/04/27 01:33:08;;;;;;;1.75;1.42;;;18.70;64.50;;;;;;5033055;28;20025;-67
2022/04/27 01:35:33;;;;;;;2.60;1.60;;;18.70;64.50;;;;;;5032994;28;20021;-67
2022/04/27 01:38:03;;;;;;;2.15;1.50;;;18.70;64.50;;;;;;5033176;28;20022;-67
2022/04/27 01:40:29;;;;;;;2.47;1.38;;;18.70;64.60;;;;;;5034193;28;20038;-67
2022/04/27 01:42:54;;;;;;;2.92;1.60;;;18.70;64.50;;;;;;5034137;28;20029;-67
2022/04/27 01:45:20;;;;;;;3.28;1.35;;;18.70;64.50;;;;;;5034203;28;20022;-67
2022/04/27 01:47:46;;;;;;;1.30;1.25;;;18.70;64.50;;;;;;5016215;28;20036;-67
2022/04/27 01:50:11;;;;;;;1.42;1.23;;;18.70;64.50;;;;;;5032857;28;20037;-67
2022/04/27 01:55:21;;;;;;;1.80;1.20;;;18.70;64.60;;;;;;5033874;28;20546;-67
2022/04/27 01:57:48;;;;;;;2.00;1.30;;;18.70;64.70;;;;;;5033875;28;20021;-67
2022/04/27 02:00:14;;;;;;;1.15;1.10;;;18.70;64.70;;;;;;5033731;28;20021;-67
2022/04/27 02:02:40;;;;;;;3.83;1.30;;;18.70;64.80;;;;;;5033637;28;20025;-67
2022/04/27 02:05:06;;;;;;;2.25;1.55;;;18.70;64.70;;;;;;5032645;28;20036;-67
2022/04/27 02:07:32;;;;;;;2.28;1.20;;;18.70;64.80;;;;;;5033800;28;20052;-67
2022/04/27 02:09:57;;;;;;;1.45;1.35;;;18.70;64.80;;;;;;5033655;28;20468;-67
2022/04/27 02:12:23;;;;;;;1.33;1.23;;;18.70;64.80;;;;;;5033611;28;20063;-67
2022/04/27 02:14:49;;;;;;;1.65;1.45;;;18.70;64.80;;;;;;5033634;28;20083;-67
2022/04/27 02:17:14;;;;;;;1.30;1.23;;;18.70;64.80;;;;;;5033436;28;20071;-67
2022/04/27 02:19:41;;;;;;;2.85;1.20;;;18.70;64.80;;;;;;5033666;28;20030;-67
2022/04/27 02:22:06;;;;;;;1.50;1.40;;;18.70;64.90;;;;;;5033246;28;20029;-67
2022/04/27 02:24:32;;;;;;;1.52;1.40;;;18.70;65.90;;;;;;5033414;28;20103;-67
2022/04/27 02:26:58;;;;;;;2.42;1.33;;;18.70;64.90;;;;;;5033196;28;20033;-67
2022/04/27 02:29:23;;;;;;;2.13;1.23;;;18.70;64.90;;;;;;5032089;28;20029;-67
2022/04/27 02:31:50;;;;;;;1.33;1.23;;;18.70;65.00;;;;;;5033117;28;20026;-67
2022/04/27 02:34:15;;;;;;;1.38;1.27;;;18.60;64.90;;;;;;5031863;28;20025;-67
2022/04/27 02:36:41;;;;;;;1.40;1.30;;;18.70;65.00;;;;;;5032284;28;20029;-67
2022/04/27 02:39:06;;;;;;;1.60;1.35;;;18.70;65.00;;;;;;5032924;28;20542;-67
2022/04/27 02:41:32;;;;;;;1.55;1.45;;;18.60;65.00;;;;;;5033098;28;20053;-67
2022/04/27 02:43:58;;;;;;;1.70;1.30;;;18.70;65.10;;;;;;5031874;28;20030;-67
2022/04/27 02:46:24;;;;;;;2.13;1.45;;;18.70;65.10;;;;;;5032878;28;20025;-67
2022/04/27 02:51:48;;;;;;;1.30;1.20;;;18.60;65.00;;;;;;5032840;28;20056;-67
2022/04/27 02:54:15;;;;;;;1.38;1.20;;;18.60;65.10;;;;;;5032530;28;20439;-67
2022/04/27 02:56:42;;;;;;;1.50;1.30;;;18.60;65.20;;;;;;5031896;28;20018;-67
2022/04/27 02:59:08;;;;;;;1.60;1.10;;;18.60;65.20;;;;;;5032557;28;20057;-67
2022/04/27 03:01:34;;;;;;;1.95;1.20;;;18.70;65.20;;;;;;5032713;28;20024;-67
2022/04/27 03:03:59;;;;;;;2.45;1.40;;;18.60;65.20;;;;;;5032656;28;20034;-67
2022/04/27 03:06:25;;;;;;;1.40;1.30;;;18.60;65.20;;;;;;5032707;28;20112;-67
2022/04/27 03:08:51;;;;;;;1.50;1.40;;;18.60;65.20;;;;;;5032592;28;20025;-67
2022/04/27 03:11:16;;;;;;;1.95;1.48;;;18.60;65.20;;;;;;5032663;28;20439;-67
2022/04/27 03:13:42;;;;;;;1.40;1.23;;;18.60;65.20;;;;;;5032543;28;20115;-67
2022/04/27 03:16:07;;;;;;;2.55;1.40;;;18.70;65.30;;;;;;5032151;28;20147;-67
2022/04/27 03:18:33;;;;;;;2.38;1.10;;;18.60;65.20;;;;;;5031330;28;20052;-67
2022/04/27 03:20:59;;;;;;;2.47;1.25;;;18.70;65.30;;;;;;5032449;28;20033;-67
2022/04/27 03:23:24;;;;;;;2.05;1.35;;;18.60;65.30;;;;;;5032758;28;20036;-67
2022/04/27 03:25:50;;;;;;;3.65;1.40;;;18.60;65.30;;;;;;5032307;28;20025;-67
2022/04/27 03:28:16;;;;;;;2.75;1.30;;;18.60;65.30;;;;;;5032114;28;20037;-67
2022/04/27 03:30:41;;;;;;;1.40;1.30;;;18.60;65.30;;;;;;5032445;28;20030;-67
2022/04/27 03:33:07;;;;;;;1.77;1.30;;;18.60;65.30;;;;;;5032183;28;20022;-67
2022/04/27 03:35:33;;;;;;;1.80;1.30;;;18.60;65.30;;;;;;5032320;28;20060;-67
2022/04/27 03:37:58;;;;;;;2.67;1.25;;;18.60;65.30;;;;;;5032400;28;20412;-67
2022/04/27 03:40:27;;;;;;;1.27;1.17;;;18.60;65.40;;;;;;5032124;28;20042;-67
2022/04/27 03:42:52;;;;;;;3.63;1.15;;;18.60;65.40;;;;;;5032290;28;20036;-67
2022/04/27 03:45:19;;;;;;;3.08;1.50;;;18.60;65.50;;;;;;5032116;28;20022;-67
2022/04/27 03:47:49;;;;;;;2.88;1.45;;;18.60;65.50;;;;;;5032122;28;20026;-67
2022/04/27 03:50:15;;;;;;;1.38;1.27;;;18.60;65.50;;;;;;5030715;28;20036;-67
2022/04/27 03:52:42;;;;;;;1.30;1.15;;;18.60;65.50;;;;;;5031172;28;20104;-67
2022/04/27 03:55:08;;;;;;;1.70;1.50;;;18.60;65.50;;;;;;5030782;28;20021;-67
2022/04/27 03:57:33;;;;;;;2.47;1.08;;;18.60;65.50;;;;;;5031842;28;20468;-67
2022/04/27 03:59:59;;;;;;;1.48;1.38;;;18.60;65.50;;;;;;5031985;28;20064;-67
2022/04/27 04:02:25;;;;;;;1.60;1.40;;;18.60;65.50;;;;;;5030741;28;20033;-67
2022/04/27 04:04:50;;;;;;;1.55;1.42;;;18.60;65.50;;;;;;5032122;28;20061;-67
2022/04/27 04:07:16;;;;;;;1.35;1.20;;;18.60;65.50;;;;;;5031946;28;20083;-67
2022/04/27 04:09:41;;;;;;;1.48;1.38;;;18.60;65.50;;;;;;5030882;28;20036;-67
2022/04/27 04:12:08;;;;;;;1.95;1.52;;;18.60;65.50;;;;;;5031675;28;20087;-67
2022/04/27 04:14:33;;;;;;;3.47;1.40;;;18.60;65.50;;;;;;5031951;28;20498;-67
2022/04/27 04:16:59;;;;;;;1.50;1.20;;;18.60;65.50;;;;;;5031934;28;20108;-67
2022/04/27 04:19:25;;;;;;;1.65;1.35;;;18.60;65.50;;;;;;5032219;28;20026;-67
2022/04/27 04:21:50;;;;;;;1.40;1.30;;;18.60;65.50;;;;;;5031818;28;20037;-67
2022/04/27 04:24:17;;;;;;;1.58;1.27;;;18.60;65.50;;;;;;5031724;28;20033;-67
2022/04/27 04:29:27;;;;;;;1.60;1.40;;;18.60;65.60;;;;;;5035687;28;20029;-67
2022/04/27 04:31:52;;;;;;;1.50;1.40;;;18.60;65.60;;;;;;5035624;28;20026;-67
2022/04/27 04:34:18;;;;;;;1.95;1.30;;;18.60;65.60;;;;;;5035451;28;20013;-67
2022/04/27 04:36:43;;;;;;;1.40;1.27;;;18.60;65.60;;;;;;5035542;28;20032;-67
2022/04/27 04:39:09;;;;;;;1.27;1.10;;;18.60;65.70;;;;;;5034185;28;20033;-67
2022/04/27 04:41:35;;;;;;;2.50;1.20;;;18.60;65.60;;;;;;5034828;28;20053;-67
2022/04/27 04:44:00;;;;;;;1.50;1.30;;;18.60;65.70;;;;;;5035496;28;20033;-67
2022/04/27 04:46:26;;;;;;;1.48;1.13;;;18.60;65.60;;;;;;5033899;28;20029;-67
2022/04/27 04:48:52;;;;;;;1.60;1.50;;;18.60;65.70;;;;;;5035418;28;20069;-67
2022/04/27 04:51:17;;;;;;;1.60;1.50;;;18.60;66.70;;;;;;5035077;28;20104;-67
2022/04/27 04:53:43;;;;;;;2.42;1.25;;;18.60;65.70;;;;;;5034981;28;20033;-67
2022/04/27 04:56:09;;;;;;;1.40;1.30;;;18.60;65.70;;;;;;5027354;28;20032;-66
2022/04/27 04:58:35;;;;;;;1.00;1.00;;;18.50;65.70;;;;;;5031817;28;20097;-67
2022/04/27 05:01:01;;;;;;;1.35;1.25;;;18.50;66.70;;;;;;5033101;28;20033;-67
2022/04/27 05:03:27;;;;;;;1.40;1.30;;;18.50;65.70;;;;;;5032925;28;20373;-67
2022/04/27 05:05:53;;;;;;;1.73;1.23;;;18.60;65.70;;;;;;5032929;28;20048;-67
2022/04/27 05:08:18;;;;;;;2.63;1.50;;;18.60;65.80;;;;;;5032839;28;20021;-67
2022/04/27 05:10:44;;;;;;;2.22;1.30;;;18.50;65.70;;;;;;5031685;28;20025;-67
2022/04/27 05:13:10;;;;;;;2.90;1.20;;;18.60;65.80;;;;;;5033071;28;20024;-67
2022/04/27 05:15:36;;;;;;;2.17;1.58;;;18.60;65.80;;;;;;5034060;28;20064;-67
2022/04/27 05:18:01;;;;;;;1.60;1.23;;;18.50;65.70;;;;;;5034032;28;20506;-67
2022/04/27 05:20:27;;;;;;;1.80;1.25;;;18.60;65.80;;;;;;5035153;28;20097;-67
2022/04/27 05:22:53;;;;;;;1.92;1.50;;;18.60;65.80;;;;;;5035068;28;20017;-67
2022/04/27 05:25:18;;;;;;;1.40;1.25;;;18.60;65.90;;;;;;5034865;28;20096;-67
2022/04/27 05:27:44;;;;;;;2.75;1.20;;;18.60;65.90;;;;;;5034961;28;20025;-67
2022/04/27 05:32:55;;;;;;;1.80;1.42;;;18.60;65.90;;;;;;5035010;28;20024;-67
2022/04/27 05:35:21;;;;;;;1.63;1.30;;;18.60;65.90;;;;;;5034923;28;20067;-67
2022/04/27 05:37:47;;;;;;;1.95;1.40;;;18.60;66.00;;;;;;5034984;28;20100;-67
2022/04/27 05:40:12;;;;;;;2.55;1.40;;;18.60;65.90;;;;;;5034186;28;20053;-67
2022/04/27 05:42:39;;;;;;;2.20;1.63;;;18.60;65.90;;;;;;5034678;28;20030;-67
2022/04/27 05:45:05;;;;;;;1.80;1.25;;;18.60;66.00;;;;;;5034666;28;20029;-67
2022/04/27 05:47:31;;;;;;;3.42;1.27;;;18.60;66.00;;;;;;5034747;28;20033;-67
2022/04/27 05:49:57;;;;;;;2.60;1.30;;;18.60;66.00;;;;;;5033469;28;20034;-67
2022/04/27 05:52:22;;;;;;;3.13;1.38;;;18.50;65.90;;;;;;5033251;28;20017;-67
2022/04/27 05:54:48;;;;;;;2.00;1.38;;;18.50;65.90;;;;;;5034277;28;20032;-67
2022/04/27 05:57:14;;;;;;;2.15;1.60;;;18.60;66.00;;;;;;5033345;28;20021;-67
2022/04/27 05:59:40;;;;;;;2.22;1.17;;;18.50;66.00;;;;;;5034543;28;20025;-67
2022/04/27 06:02:05;;;;;;;1.95;1.13;;;18.50;66.00;;;;;;5033365;28;20030;-67
2022/04/27 06:04:31;;;;;;;3.00;1.20;;;18.50;66.00;;;;;;5034384;28;20037;-67
2022/04/27 06:06:56;;;;;;;1.33;1.10;;;18.50;66.00;;;;;;5034198;28;20060;-67
2022/04/27 06:09:22;;;;;;;3.30;1.20;;;18.50;66.00;;;;;;5033976;28;20419;-67
2022/04/27 06:11:48;;;;;;;1.65;1.42;;;18.60;66.00;;;;;;5033061;28;20022;-67
2022/04/27 06:14:13;;;;;;;2.13;1.70;;;18.50;65.80;;;;;;5032962;28;20029;-67
2022/04/27 06:16:39;;;;;;;2.53;1.40;;;18.50;65.70;;;;;;5033053;28;20368;-69
2022/04/27 06:19:05;;;;;;;1.38;1.25;;;18.40;65.50;;;;;;5034083;28;20040;-68
2022/04/27 06:21:33;;;;;;;2.10;1.45;;;18.40;65.50;;;;;;5034165;28;20032;-68
2022/04/27 06:24:00;;;;;;;3.13;1.42;;;18.30;65.50;;;;;;5032577;28;20084;-68
2022/04/27 06:26:26;;;;;;;1.70;1.40;;;18.30;65.40;;;;;;5033658;28;20018;-68
2022/04/27 06:28:52;;;;;;;1.20;1.10;;;18.30;65.40;;;;;;5013719;28;20030;-67
2022/04/27 06:31:18;;;;;;;2.13;1.25;;;18.30;65.40;;;;;;5008261;28;20148;-67
2022/04/27 06:33:44;;;;;;;3.38;1.60;;;18.30;65.30;;;;;;5028799;28;20506;-67
2022/04/27 06:36:11;;;;;;;1.90;1.40;;;18.30;65.30;;;;;;5013377;28;20014;-67
2022/04/27 06:38:36;;;;;;;7.93;2.10;;;18.30;65.30;;;;;;5013321;28;20492;-68
2022/04/27 06:41:02;;;;;;;1.50;1.40;;;18.30;65.20;;;;;;5013335;28;20046;-68
2022/04/27 06:43:28;;;;;;;2.20;1.45;;;18.30;65.20;;;;;;5028583;28;20033;-67
2022/04/27 06:45:54;;;;;;;1.42;1.30;;;18.30;65.20;;;;;;5012595;28;20030;-67
2022/04/27 06:48:19;;;;;;;5.03;2.08;;;18.30;65.20;;;;;;5026925;28;20101;-67
2022/04/27 06:50:45;;;;;;;4.95;2.30;;;18.30;65.20;;;;;;5011518;28;20040;-67
2022/04/27 06:53:11;;;;;;;6.20;2.10;;;18.30;65.10;;;;;;5012321;28;20021;-67
2022/04/27 06:55:37;;;;;;;5.72;2.20;;;18.30;65.10;;;;;;5030067;28;20037;-67
2022/04/27 06:58:03;;;;;;;4.35;1.95;;;18.20;65.10;;;;;;5030550;28;20032;-67
2022/04/27 07:00:28;;;;;;;5.97;2.25;;;18.20;65.00;;;;;;5030610;28;20537;-67
2022/04/27 07:02:54;;;;;;;6.30;2.15;;;18.20;65.00;;;;;;5032183;28;20021;-67
2022/04/27 07:05:20;;;;;;;4.63;1.95;;;18.20;65.00;;;;;;5023686;28;20103;-67
2022/04/27 07:07:46;;;;;;;9.73;2.38;;;18.30;65.00;;;;;;5031497;28;20100;-67
2022/04/27 07:10:13;;;;;;;7.93;2.33;;;18.20;64.90;;;;;;5032798;28;20037;-67
2022/04/27 07:12:38;;;;;;;7.07;2.40;;;18.30;65.00;;;;;;5032471;28;20021;-67
2022/04/27 07:15:05;;;;;;;6.38;2.33;;;18.30;65.00;;;;;;5031313;28;20032;-67
2022/04/27 07:17:30;;;;;;;6.55;2.20;;;18.30;65.00;;;;;;5032404;28;20014;-67
2022/04/27 07:19:57;;;;;;;8.73;2.65;;;18.20;64.90;;;;;;5032435;28;20112;-67
2022/04/27 07:22:22;;;;;;;5.00;2.20;;;18.20;64.90;;;;;;5032253;28;20021;-67
2022/04/27 07:24:49;;;;;;;8.55;2.10;;;18.20;64.90;;;;;;5031310;28;20091;-67
2022/04/27 07:27:18;;;;;;;7.78;2.50;;;18.20;64.80;;;;;;5032298;28;20022;-67
2022/04/27 07:29:44;;;;;;;8.43;2.33;;;18.20;64.80;;;;;;5032390;28;20029;-67
2022/04/27 07:32:09;;;;;;;6.85;2.08;;;18.20;64.80;;;;;;5031140;28;20014;-67
2022/04/27 07:34:35;;;;;;;6.95;2.13;;;18.20;65.90;;;;;;5031990;28;20542;-67
2022/04/27 07:37:02;;;;;;;8.18;2.38;;;18.20;64.80;;;;;;5032334;28;20022;-67
2022/04/27 07:39:28;;;;;;;6.40;2.00;;;18.20;64.80;;;;;;5030763;28;20025;-67
2022/04/27 07:41:54;;;;;;;5.18;2.40;;;18.20;64.90;;;;;;5032386;28;20108;-67
2022/04/27 07:44:19;;;;;;;5.50;2.10;;;18.20;64.90;;;;;;5032211;28;20021;-67
2022/04/27 07:46:48;;;;;;;3.95;2.00;;;18.20;64.80;;;;;;5032448;28;20037;-67
2022/04/27 07:49:15;;;;;;;5.53;2.30;;;18.20;64.80;;;;;;5031933;28;20518;-67
2022/04/27 07:51:40;;;;;;;6.15;2.35;;;18.10;64.70;;;;;;5032072;28;20597;-67
2022/04/27 07:54:06;;;;;;;6.75;2.22;;;18.10;64.70;;;;;;5032179;28;20104;-67
2022/04/27 07:56:32;;;;;;;6.88;2.17;;;18.20;64.70;;;;;;5032149;28;20160;-67
2022/04/27 07:58:57;;;;;;;8.25;2.10;;;18.20;64.70;;;;;;5032121;28;20151;-67
2022/04/27 08:01:23;;;;;;;3.05;2.03;;;18.20;64.70;;;;;;5032191;28;20116;-67
2022/04/27 08:03:48;;;;;;;3.90;1.85;;;18.10;64.60;;;;;;5034716;28;20104;-67
2022/04/27 08:06:14;;;;;;;4.57;2.13;;;18.10;64.60;;;;;;5036060;28;20033;-67
2022/04/27 08:08:40;;;;;;;5.70;2.55;;;18.10;64.60;;;;;;5035848;28;20036;-67
2022/04/27 08:11:07;;;;;;;5.72;2.20;;;18.10;64.70;;;;;;5035949;28;20031;-67
2022/04/27 08:13:33;;;;;;;6.07;2.17;;;18.10;64.60;;;;;;5035701;28;20435;-67
2022/04/27 08:15:59;;;;;;;3.85;2.38;;;18.10;64.60;;;;;;5034998;28;20043;-67
2022/04/27 08:18:24;;;;;;;5.28;2.10;;;18.10;64.60;;;;;;5035635;28;20488;-67
2022/04/27 08:23:36;;;;;;;5.75;2.20;;;18.10;64.50;;;;;;5035494;28;20554;-67
2022/04/27 08:26:04;;;;;;;6.05;1.90;;;18.00;64.50;;;;;;5034786;28;20376;-67
2022/04/27 08:28:30;;;;;;;5.45;2.22;;;18.10;64.50;;;;;;5035450;28;20025;-67
2022/04/27 08:30:56;;;;;;;4.60;2.28;;;18.00;64.50;;;;;;5035736;28;20018;-67
2022/04/27 08:33:22;;;;;;;5.82;2.55;;;18.10;64.50;;;;;;5034019;28;20021;-67
2022/04/27 08:35:47;;;;;;;6.55;2.17;;;18.10;64.50;;;;;;5034323;28;20362;-67
2022/04/27 08:38:13;;;;;;;6.28;2.28;;;18.10;64.50;;;;;;5035494;28;20105;-67
2022/04/27 08:40:40;;;;;;;4.40;2.00;;;18.10;64.50;;;;;;5035092;28;20100;-67
2022/04/27 08:43:06;;;;;;;4.10;2.22;;;18.00;64.50;;;;;;5035342;28;20084;-67
2022/04/27 08:45:33;;;;;;;4.32;1.95;;;18.10;64.50;;;;;;5017309;28;20472;-67
2022/04/27 08:47:59;;;;;;;5.95;2.05;;;18.10;64.50;;;;;;5035255;28;20052;-67
2022/04/27 08:50:25;;;;;;;3.75;2.20;;;18.10;64.50;;;;;;5033824;28;20049;-67
2022/04/27 08:52:51;;;;;;;5.43;2.10;;;18.10;65.50;;;;;;5033990;28;20022;-67
2022/04/27 08:55:17;;;;;;;3.10;1.80;;;18.10;64.50;;;;;;5033763;28;20032;-67
2022/04/27 08:57:43;;;;;;;3.75;1.88;;;18.00;64.40;;;;;;5033851;28;20021;-67
2022/04/27 09:00:13;;;;;;;4.28;2.40;;;18.00;65.50;;;;;;5034965;28;20034;-67
2022/04/27 09:02:39;;;;;;;4.35;2.08;;;18.10;64.40;;;;;;5034818;28;20030;-67
2022/04/27 09:05:06;;;;;;;3.83;1.90;;;18.00;64.40;;;;;;5033723;28;20196;-67
2022/04/27 09:07:51;;;;;;;3.58;1.80;;;18.00;64.50;;;;;;5034736;28;20060;-67
2022/04/27 09:10:21;;;;;;;7.70;2.00;;;18.00;64.30;;;;;;5033581;28;20029;-67
2022/04/27 09:12:56;;;;;;;5.03;1.98;;;18.00;64.40;;;;;;5034731;28;20040;-67
2022/04/27 09:15:23;;;;;;;2.70;2.00;;;18.00;64.30;;;;;;5034717;28;20056;-67
2022/04/27 09:20:55;;;;;;;5.53;1.92;;;18.00;64.30;;;;;;5034368;28;20095;-67
2022/04/27 09:23:21;;;;;;;2.47;1.60;;;18.00;65.40;;;;;;5034739;28;20028;-67
2022/04/27 09:25:47;;;;;;;6.55;2.10;;;18.00;64.40;;;;;;5034425;28;20037;-67
2022/04/27 09:28:12;;;;;;;4.28;1.98;;;18.00;64.40;;;;;;5033229;28;20026;-67
2022/04/27 09:30:38;;;;;;;4.07;1.83;;;18.00;64.30;;;;;;5034103;28;20100;-67
2022/04/27 09:33:04;;;;;;;4.72;2.25;;;18.00;64.30;;;;;;5034340;28;20430;-67
2022/04/27 09:35:34;;;;;;;4.80;2.00;;;18.00;64.30;;;;;;5034200;28;20543;-67
2022/04/27 09:38:19;;;;;;;3.70;2.10;;;18.00;64.30;;;;;;5033270;28;20030;-67
2022/04/27 09:40:54;;;;;;;5.97;2.08;;;18.00;64.10;;;;;;5032904;28;20115;-67
2022/04/27 09:43:45;;;;;;;6.95;2.00;;;18.00;64.20;;;;;;5034276;28;20100;-67
2022/04/27 09:46:25;;;;;;;3.58;2.08;;;18.00;64.10;;;;;;5032914;28;20021;-67
2022/04/27 09:49:14;;;;;;;2.95;1.88;;;18.00;64.20;;;;;;5032735;28;20060;-67
2022/04/27 09:51:53;;;;;;;3.30;1.88;;;18.00;64.10;;;;;;5032800;28;20032;-67
2022/04/27 09:54:20;;;;;;;3.03;1.85;;;18.00;64.30;;;;;;5033819;28;20056;-67
2022/04/27 09:56:51;;;;;;;3.55;1.88;;;17.90;64.30;;;;;;5032774;28;20581;-67
2022/04/27 09:59:18;;;;;;;2.45;1.75;;;18.00;64.30;;;;;;5033862;28;20018;-67
2022/04/27 10:01:44;;;;;;;2.95;1.73;;;17.90;64.30;;;;;;5033659;28;20029;-66
2022/04/27 10:04:10;;;;;;;3.25;1.58;;;17.90;64.20;;;;;;5032659;28;20025;-66
2022/04/27 10:06:36;;;;;;;4.57;2.15;;;17.90;64.20;;;;;;5032597;28;20031;-66
2022/04/27 10:09:03;;;;;;;5.88;1.80;;;17.90;64.20;;;;;;5032374;28;20100;-66
2022/04/27 10:11:29;;;;;;;5.03;2.25;;;17.90;64.20;;;;;;5032445;28;20021;-66
2022/04/27 10:13:55;;;;;;;3.10;1.63;;;17.90;64.30;;;;;;5033394;28;20024;-66
2022/04/27 10:16:24;;;;;;;4.43;1.98;;;18.00;64.20;;;;;;5032328;28;20380;-66
2022/04/27 10:18:50;;;;;;;2.40;1.88;;;17.90;64.10;;;;;;5016322;28;20025;-66
2022/04/27 10:21:39;;;;;;;5.85;1.88;;;18.00;64.20;;;;;;5015943;28;20029;-66
2022/04/27 10:24:06;;;;;;;5.15;1.80;;;18.00;64.00;;;;;;5032194;28;20427;-66
2022/04/27 10:26:31;;;;;;;6.25;1.90;;;17.90;64.20;;;;;;5031311;28;20109;-66
2022/04/27 10:29:00;;;;;;;2.53;1.65;;;17.90;64.10;;;;;;5031969;28;20100;-66
2022/04/27 10:31:42;;;;;;;2.90;1.80;;;17.90;64.10;;;;;;5033380;28;20093;-66
2022/04/27 10:34:17;;;;;;;4.53;2.05;;;18.00;64.10;;;;;;5033331;28;20491;-66
2022/04/27 10:36:43;;;;;;;3.15;1.83;;;17.90;64.20;;;;;;5032001;28;20025;-66
2022/04/27 10:39:12;;;;;;;2.58;1.77;;;17.90;64.20;;;;;;5032037;28;20040;-66
2022/04/27 10:42:04;;;;;;;3.38;1.80;;;17.90;64.10;;;;;;5032814;28;20080;-66
2022/04/27 10:44:51;;;;;;;3.50;1.77;;;18.00;64.00;;;;;;5010880;28;20046;-66
2022/04/27 10:47:20;;;;;;;3.30;2.00;;;17.90;64.00;;;;;;5011092;28;20040;-66
2022/04/27 10:49:50;;;;;;;2.13;1.60;;;17.90;64.20;;;;;;4994844;28;20113;-66
2022/04/27 10:52:16;;;;;;;3.53;2.22;;;17.90;64.10;;;;;;5011256;28;20037;-66
2022/04/27 10:54:42;;;;;;;1.63;1.52;;;17.90;64.10;;;;;;5010698;28;20026;-66
2022/04/27 10:57:17;;;;;;;3.28;1.88;;;17.90;64.10;;;;;;4994754;28;20088;-66
2022/04/27 10:59:49;;;;;;;3.50;1.83;;;17.90;64.00;;;;;;5010755;28;20515;-66
2022/04/27 11:02:39;;;;;;;3.25;1.75;;;17.90;64.10;;;;;;5009639;28;20133;-66
2022/04/27 11:05:11;;;;;;;1.70;1.48;;;17.90;64.00;;;;;;5010632;28;20030;-66
2022/04/27 11:07:41;;;;;;;4.57;2.00;;;17.90;64.10;;;;;;5010164;28;20037;-66
2022/04/27 11:10:14;;;;;;;2.67;1.90;;;17.90;64.10;;;;;;5010255;28;20030;-66
2022/04/27 11:12:40;;;;;;;2.33;1.40;;;17.90;64.10;;;;;;5010455;28;20030;-66
2022/04/27 11:15:07;;;;;;;4.22;1.73;;;17.90;64.10;;;;;;5010620;28;20033;-66
2022/04/27 11:17:35;;;;;;;3.17;2.00;;;17.90;64.10;;;;;;4994303;28;20396;-66
2022/04/27 11:20:03;;;;;;;2.42;1.70;;;17.90;64.10;;;;;;5010756;28;20022;-66
2022/04/27 11:22:36;;;;;;;3.42;2.00;;;17.90;64.10;;;;;;5030536;28;20045;-66
2022/04/27 11:25:05;;;;;;;3.88;1.70;;;17.90;64.00;;;;;;5031082;28;20028;-66
2022/04/27 11:27:33;;;;;;;1.98;1.75;;;17.90;64.10;;;;;;5031346;28;20036;-66
2022/04/27 11:29:59;;;;;;;3.50;1.67;;;17.90;64.10;;;;;;5031131;28;20029;-66
2022/04/27 11:32:25;;;;;;;2.60;1.55;;;17.90;64.10;;;;;;5014973;28;20021;-66
2022/04/27 11:34:51;;;;;;;2.30;1.80;;;17.90;64.00;;;;;;5031094;28;20068;-66
2022/04/27 11:37:18;;;;;;;1.98;1.65;;;17.90;64.00;;;;;;5030815;28;20033;-66
2022/04/27 11:39:44;;;;;;;1.80;1.50;;;17.90;64.00;;;;;;5030886;28;20113;-66
2022/04/27 11:42:12;;;;;;;2.25;1.88;;;17.90;64.00;;;;;;5031014;28;20030;-66
2022/04/27 11:44:38;;;;;;;2.17;1.50;;;17.90;64.00;;;;;;5032315;28;20029;-66
2022/04/27 11:47:04;;;;;;;2.40;1.80;;;17.90;64.00;;;;;;5032123;28;20056;-66
2022/04/27 11:49:29;;;;;;;3.05;1.40;;;17.90;64.00;;;;;;5032198;28;20060;-66
2022/04/27 11:51:55;;;;;;;2.00;1.55;;;17.90;64.00;;;;;;5032012;28;20047;-66
2022/04/27 11:54:28;;;;;;;2.08;1.60;;;17.90;64.00;;;;;;5032128;28;20100;-66
2022/04/27 11:56:55;;;;;;;1.95;1.50;;;17.90;63.90;;;;;;5030893;28;20024;-66
2022/04/27 11:59:21;;;;;;;3.13;2.05;;;17.90;64.00;;;;;;5032127;28;20018;-66
2022/04/27 12:01:53;;;;;;;2.60;1.65;;;17.90;64.00;;;;;;5031812;28;20083;-66
2022/04/27 12:04:19;;;;;;;2.80;1.63;;;17.90;63.90;;;;;;5030817;28;20028;-66
2022/04/27 12:06:45;;;;;;;3.58;1.80;;;17.90;64.00;;;;;;5032070;28;20025;-66
2022/04/27 12:09:17;;;;;;;3.05;1.80;;;17.90;64.00;;;;;;5030834;28;20021;-66
2022/04/27 12:11:43;;;;;;;3.20;1.65;;;17.90;64.00;;;;;;5031534;28;20026;-66
2022/04/27 12:14:09;;;;;;;2.38;1.70;;;17.90;64.00;;;;;;5030902;28;20036;-66
2022/04/27 12:16:39;;;;;;;1.70;1.52;;;17.90;64.00;;;;;;5030709;28;20021;-66
2022/04/27 12:19:06;;;;;;;3.42;1.27;;;17.90;64.00;;;;;;5031939;28;20021;-66
2022/04/27 12:21:32;;;;;;;2.75;1.85;;;17.90;64.00;;;;;;5031856;28;20028;-66
2022/04/27 12:23:58;;;;;;;3.25;2.10;;;17.90;63.90;;;;;;5030828;28;20105;-66
2022/04/27 12:26:27;;;;;;;2.03;1.80;;;17.90;63.90;;;;;;5030438;28;20108;-66
2022/04/27 12:28:53;;;;;;;1.95;1.70;;;17.90;63.90;;;;;;5031683;28;20549;-66
2022/04/27 12:31:20;;;;;;;2.40;1.92;;;17.90;64.00;;;;;;5032048;28;20049;-66
2022/04/27 12:33:50;;;;;;;2.75;1.50;;;17.90;64.00;;;;;;5031704;28;20017;-66
2022/04/27 12:39:20;;;;;;;2.22;1.70;;;17.90;63.80;;;;;;5031494;28;20068;-66
2022/04/27 12:41:47;;;;;;;2.05;1.58;;;17.90;64.10;;;;;;5014266;28;20029;-66
2022/04/27 12:44:14;;;;;;;2.78;1.70;;;17.90;64.00;;;;;;5031592;28;20033;-66
2022/04/27 12:47:00;;;;;;;2.38;1.65;;;17.90;64.00;;;;;;5031671;28;20094;-66
2022/04/27 12:49:32;;;;;;;1.70;1.60;;;17.90;63.80;;;;;;5033553;28;20108;-66
2022/04/27 12:52:34;;;;;;;2.47;1.90;;;17.90;64.00;;;;;;5035252;28;20492;-66
2022/04/27 12:55:07;;;;;;;3.50;1.60;;;17.90;63.80;;;;;;5033617;28;20108;-66
2022/04/27 12:57:47;;;;;;;2.28;1.85;;;17.90;64.00;;;;;;5033855;28;20117;-66
2022/04/27 13:00:13;;;;;;;1.85;1.60;;;17.90;64.00;;;;;;5034997;28;20025;-66
2022/04/27 13:02:39;;;;;;;1.80;1.33;;;17.80;64.00;;;;;;5035069;28;20396;-66
2022/04/27 13:05:05;;;;;;;1.73;1.50;;;17.90;64.00;;;;;;5034761;28;20025;-66
2022/04/27 13:07:31;;;;;;;3.67;1.80;;;17.90;64.00;;;;;;5035044;28;20105;-66
2022/04/27 13:12:41;;;;;;;2.78;1.85;;;17.90;64.00;;;;;;5014968;28;20048;-66